Time;durP1;ratioP1;P1;durP2;ratioP2;P2;SDS_P1;SDS_P2;PMS_P1;PMS_P2;Temp;Humidity;BMP_temperature;BMP_pressure;BME280_temperature;BME280_humidity;BME280_pressure;Samples;Min_cycle;Max_cycle;Signal;HPM_P1;HPM_P2
2021/01/18 00:02:01;;;;;;;13.80;5.20;;;4.30;99.90;;;;;;4834172;29;20050;-90
2021/01/18 00:04:29;;;;;;;23.00;7.97;;;;;;;;;;4850489;29;20304;-87
2021/01/18 00:06:57;;;;;;;20.48;6.35;;;;;;;;;;4833262;29;20060;-91
2021/01/18 00:09:25;;;;;;;22.23;6.63;;;;;;;;;;4852616;29;20054;-93
2021/01/18 00:11:53;;;;;;;26.30;7.60;;;;;;;;;;4843075;29;20058;-87
2021/01/18 00:14:22;;;;;;;13.70;5.78;;;;;;;;;;4842819;29;20054;-88
2021/01/18 00:16:52;;;;;;;18.35;6.75;;;;;;;;;;4840760;29;20540;-87
2021/01/18 00:19:20;;;;;;;18.30;7.18;;;;;;;;;;4844748;29;20527;-89
2021/01/18 00:21:48;;;;;;;15.30;4.90;;;;;;;;;;4830556;29;20388;-89
2021/01/18 00:24:17;;;;;;;18.38;6.85;;;;;;;;;;4819254;29;20152;-86
2021/01/18 00:26:48;;;;;;;19.17;5.28;;;;;;;;;;4849380;29;20066;-89
2021/01/18 00:29:22;;;;;;;22.45;7.30;;;;;;;;;;4851769;29;20191;-86
2021/01/18 00:31:49;;;;;;;18.42;6.55;;;;;;;;;;4853130;29;20450;-93
2021/01/18 00:34:29;;;;;;;16.77;7.38;;;;;;;;;;4833892;29;20570;-87
2021/01/18 00:36:59;;;;;;;13.68;5.47;;;;;;;;;;4846582;29;20058;-88
2021/01/18 00:39:28;;;;;;;;;;;4.30;99.90;;;;;;4818802;29;20148;-89
2021/01/18 00:41:56;;;;;;;25.50;5.50;;;;;;;;;;4852398;29;19939;-92
2021/01/18 00:44:25;;;;;;;13.38;6.03;;;;;;;;;;4846658;29;20069;-91
2021/01/18 00:46:54;;;;;;;17.80;5.80;;;;;;;;;;4852369;29;20054;-89
2021/01/18 00:49:23;;;;;;;23.38;7.18;;;;;;;;;;4834986;29;20502;-89
2021/01/18 00:51:51;;;;;;;13.23;7.28;;;;;;;;;;4840383;29;20054;-91
2021/01/18 00:54:21;;;;;;;16.42;5.82;;;;;;;;;;4836299;29;20050;-86
2021/01/18 00:56:58;;;;;;;22.30;5.28;;;4.40;99.90;;;;;;4812112;29;20066;-89
2021/01/18 00:59:45;;;;;;;28.05;7.63;;;;;;;;;;4848677;29;20056;-91
2021/01/18 01:02:15;;;;;;;13.43;4.30;;;;;;;;;;4853107;29;20066;-88
2021/01/18 01:04:47;;;;;;;27.95;8.68;;;;;;;;;;4820120;29;20050;-90
2021/01/18 01:07:17;;;;;;;18.05;5.80;;;;;;;;;;4855596;29;20064;-85
2021/01/18 01:09:44;;;;;;;13.15;5.00;;;;;;;;;;4848185;29;20068;-85
2021/01/18 01:12:12;;;;;;;32.13;8.65;;;;;;;;;;4838708;29;20064;-87
2021/01/18 01:14:40;;;;;;;19.77;7.32;;;;;;;;;;4837128;29;20054;-87
2021/01/18 01:17:11;;;;;;;16.58;4.82;;;4.40;99.90;;;;;;4831570;29;20050;-85
2021/01/18 01:19:40;;;;;;;18.40;4.45;;;;;;;;;;4825006;29;20061;-87
2021/01/18 01:22:10;;;;;;;16.75;5.57;;;;;;;;;;4848329;29;20057;-85
2021/01/18 01:24:40;;;;;;;16.40;6.55;;;;;;;;;;4835202;29;20061;-84
2021/01/18 01:27:08;;;;;;;15.88;6.05;;;;;;;;;;4841810;29;20063;-89
2021/01/18 01:29:38;;;;;;;9.40;4.88;;;;;;;;;;4834000;29;20065;-88
2021/01/18 01:32:07;;;;;;;19.63;6.90;;;;;;;;;;4849682;29;20056;-89
2021/01/18 01:34:37;;;;;;;27.80;5.85;;;;;;;;;;4826232;29;20074;-91
2021/01/18 01:37:05;;;;;;;29.45;4.47;;;;;;;;;;4832543;29;20054;-84
2021/01/18 01:39:33;;;;;;;30.42;7.07;;;;;;;;;;4829013;29;20062;-84
2021/01/18 01:42:02;;;;;;;16.23;5.40;;;;;;;;;;4811138;29;20058;-84
2021/01/18 01:44:30;;;;;;;25.38;7.57;;;;;;;;;;4828055;29;20066;-84
2021/01/18 01:47:02;;;;;;;23.20;6.50;;;4.30;99.90;;;;;;4828976;29;20057;-85
2021/01/18 01:49:30;;;;;;;23.88;9.38;;;;;;;;;;4844466;29;20062;-84
2021/01/18 01:51:58;;;;;;;21.77;5.82;;;4.20;99.90;;;;;;4844582;29;20053;-84
2021/01/18 01:54:27;;;;;;;25.42;8.88;;;;;;;;;;4829746;29;20061;-86
2021/01/18 01:56:55;;;;;;;30.92;5.93;;;;;;;;;;4834680;29;20050;-87
2021/01/18 01:59:24;;;;;;;14.32;6.00;;;;;;;;;;4830574;29;20058;-84
2021/01/18 02:01:54;;;;;;;21.10;5.45;;;4.20;99.90;;;;;;4830573;29;20050;-84
2021/01/18 02:04:23;;;;;;;26.55;8.38;;;;;;;;;;4830026;29;20062;-85
2021/01/18 02:06:50;;;;;;;18.98;6.18;;;;;;;;;;4800788;29;20086;-83
2021/01/18 02:09:19;;;;;;;29.45;8.25;;;;;;;;;;4847330;29;20065;-84
2021/01/18 02:11:47;;;;;;;23.98;6.53;;;;;;;;;;4830878;29;20050;-88
2021/01/18 02:14:30;;;;;;;24.38;6.00;;;4.20;99.90;;;;;;4844749;29;20061;-87
2021/01/18 02:17:17;;;;;;;17.58;6.03;;;4.10;99.90;;;;;;4843986;29;20061;-85
2021/01/18 02:20:08;;;;;;;17.27;4.85;;;4.00;99.90;;;;;;4831790;29;20054;-86
2021/01/18 02:22:54;;;;;;;27.50;6.22;;;4.10;99.90;;;;;;4833928;29;20069;-88
2021/01/18 02:25:33;;;;;;;19.27;6.35;;;4.10;99.90;;;;;;4834518;29;20062;-84
2021/01/18 02:28:11;;;;;;;20.70;5.68;;;4.20;99.90;;;;;;4831853;29;20053;-87
2021/01/18 02:30:48;;;;;;;23.25;7.72;;;;;;;;;;4828321;29;20061;-86
2021/01/18 02:34:05;;;;;;;15.80;6.05;;;4.30;99.90;;;;;;4830446;29;20046;-85
2021/01/18 02:36:38;;;;;;;22.25;5.63;;;4.20;99.90;;;;;;4828125;29;20697;-84
2021/01/18 02:39:33;;;;;;;19.27;5.68;;;4.10;99.90;;;;;;4814787;29;20053;-88
2021/01/18 02:42:07;;;;;;;15.80;5.90;;;4.10;99.90;;;;;;4837410;29;20049;-88
2021/01/18 02:44:39;;;;;;;20.83;5.75;;;4.10;99.90;;;;;;4817292;29;20053;-85
2021/01/18 02:47:08;;;;;;;26.45;8.38;;;4.20;99.90;;;;;;4831230;29;20073;-84
2021/01/18 02:49:36;;;;;;;30.33;8.52;;;4.00;99.90;;;;;;4848930;29;20072;-89
2021/01/18 02:52:12;;;;;;;15.43;4.45;;;4.20;99.90;;;;;;4827601;29;20495;-88
2021/01/18 02:54:40;;;;;;;23.27;8.20;;;;;;;;;;4847336;29;20058;-88
2021/01/18 02:57:14;;;;;;;19.60;5.18;;;4.20;99.90;;;;;;4849373;29;20054;-87
2021/01/18 02:59:42;;;;;;;24.55;5.18;;;4.20;99.90;;;;;;4818919;29;20054;-87
2021/01/18 03:02:31;;;;;;;21.27;7.90;;;4.20;99.90;;;;;;4833433;29;20491;-87
2021/01/18 03:05:11;;;;;;;29.15;5.78;;;;;;;;;;4849935;29;20058;-87
2021/01/18 03:07:57;;;;;;;18.98;6.68;;;;;;;;;;4850057;29;20058;-93
2021/01/18 03:10:26;;;;;;;18.38;6.35;;;;;;;;;;4849591;29;20057;-90
2021/01/18 03:13:10;;;;;;;31.52;7.47;;;4.20;99.90;;;;;;4849384;29;20062;-86
2021/01/18 03:15:42;;;;;;;20.75;7.72;;;4.10;99.90;;;;;;4849720;29;20057;-87
2021/01/18 03:18:17;;;;;;;18.45;4.60;;;4.20;99.90;;;;;;4839824;29;20389;-90
2021/01/18 03:20:45;;;;;;;27.08;5.43;;;;;;;;;;4831500;29;20054;-88
2021/01/18 03:23:13;;;;;;;18.58;5.32;;;;;;;;;;4848631;29;20069;-86
2021/01/18 03:25:50;;;;;;;17.33;6.53;;;;;;;;;;4836103;29;20050;-88
2021/01/18 03:28:20;;;;;;;9.82;4.43;;;4.10;99.90;;;;;;4837675;29;20072;-93
2021/01/18 03:30:48;;;;;;;12.13;4.15;;;;;;;;;;4852516;29;20050;-92
2021/01/18 03:33:17;;;;;;;18.08;6.28;;;;;;;;;;4838504;29;20068;-87
2021/01/18 03:35:45;;;;;;;18.55;6.22;;;;;;;;;;4850033;29;20069;-90
2021/01/18 03:38:13;;;;;;;17.17;4.05;;;;;;;;;;4840355;29;20046;-89
2021/01/18 03:40:43;;;;;;;13.98;4.18;;;4.10;99.90;;;;;;4832804;29;20062;-92
2021/01/18 03:43:11;;;;;;;16.30;4.97;;;;;;;;;;4854552;29;20065;-94
2021/01/18 03:45:42;;;;;;;22.20;6.93;;;4.20;99.90;;;;;;4853189;29;20603;-88
2021/01/18 03:48:12;;;;;;;26.10;6.83;;;4.20;99.90;;;;;;4835380;29;20054;-91
2021/01/18 03:50:41;;;;;;;19.13;6.78;;;4.20;99.90;;;;;;4834137;29;20061;-90
2021/01/18 03:53:10;;;;;;;25.35;5.35;;;4.30;99.90;;;;;;4836804;29;20069;-88
2021/01/18 03:55:39;;;;;;;21.48;4.85;;;4.30;99.90;;;;;;4852012;29;20068;-93
2021/01/18 03:58:08;;;;;;;31.77;5.32;;;;;;;;;;4842083;29;20050;-92
2021/01/18 04:00:36;;;;;;;14.05;5.45;;;;;;;;;;4835554;29;20050;-94
2021/01/18 04:03:05;;;;;;;18.45;4.30;;;;;;;;;;4836088;29;20065;-94
2021/01/18 04:05:33;;;;;;;18.50;5.75;;;;;;;;;;4850969;29;20046;-91
2021/01/18 04:08:01;;;;;;;22.05;5.28;;;;;;;;;;4834734;29;20072;-91
2021/01/18 04:10:29;;;;;;;12.82;4.53;;;4.40;99.90;;;;;;4849805;29;20057;-86
2021/01/18 04:12:58;;;;;;;15.57;4.80;;;4.50;99.90;;;;;;4820804;29;20077;-92
2021/01/18 04:15:26;;;;;;;19.45;5.72;;;4.40;99.90;;;;;;4851792;29;20062;-92
2021/01/18 04:17:56;;;;;;;27.65;8.95;;;4.40;99.90;;;;;;4844916;29;20066;-85
2021/01/18 04:20:24;;;;;;;17.55;4.40;;;;;;;;;;4853821;29;20388;-85
2021/01/18 04:23:04;;;;;;;16.52;4.13;;;4.30;99.90;;;;;;4819344;29;20062;-90
2021/01/18 04:25:32;;;;;;;10.02;4.38;;;;;;;;;;4833270;29;20058;-91
2021/01/18 04:28:04;;;;;;;25.98;8.45;;;4.30;99.90;;;;;;4833392;29;20054;-88
2021/01/18 04:30:37;;;;;;;18.83;4.60;;;4.30;99.90;;;;;;4852998;29;20065;-86
2021/01/18 04:33:07;;;;;;;19.20;4.70;;;4.30;99.90;;;;;;4830768;29;20062;-87
2021/01/18 04:35:37;;;;;;;26.27;9.35;;;4.30;99.90;;;;;;4841197;29;20073;-90
2021/01/18 04:38:08;;;;;;;19.50;5.43;;;;;;;;;;4837077;29;20054;-91
2021/01/18 04:40:36;;;;;;;12.43;5.03;;;;;;;;;;4847270;29;20081;-91
2021/01/18 04:43:03;;;;;;;14.43;5.15;;;;;;;;;;4840710;29;20058;-91
2021/01/18 04:45:31;;;;;;;19.20;7.32;;;;;;;;;;4834092;29;20128;-89
2021/01/18 04:48:01;;;;;;;18.30;4.95;;;;;;;;;;4834273;29;20061;-88
2021/01/18 04:50:30;;;;;;;17.95;7.80;;;;;;;;;;4837554;29;20046;-93
2021/01/18 04:53:07;;;;;;;14.15;5.18;;;4.10;99.90;;;;;;4849388;29;20058;-91
2021/01/18 04:55:43;;;;;;;14.73;5.30;;;4.00;99.90;;;;;;4848767;29;20627;-87
2021/01/18 04:58:14;;;;;;;29.95;6.95;;;4.00;99.90;;;;;;4832674;29;20073;-89
2021/01/18 05:00:42;;;;;;;14.77;5.25;;;;;;;;;;4850576;29;20058;-89
2021/01/18 05:03:11;;;;;;;10.75;4.25;;;3.90;99.90;;;;;;4830533;29;20498;-87
2021/01/18 05:05:51;;;;;;;25.52;7.28;;;3.90;99.90;;;;;;4848956;29;20054;-93
2021/01/18 05:08:53;;;;;;;16.52;6.20;;;3.90;99.90;;;;;;4847571;29;20057;-91
2021/01/18 05:11:21;;;;;;;21.35;5.75;;;;;;;;;;4846949;29;20058;-90
2021/01/18 05:13:48;;;;;;;23.70;6.40;;;;;;;;;;4847867;29;20387;-88
2021/01/18 05:16:16;;;;;;;17.05;3.72;;;;;;;;;;4831819;29;20557;-94
2021/01/18 05:18:49;;;;;;;34.35;6.55;;;3.90;99.90;;;;;;4832107;29;20050;-88
2021/01/18 05:21:18;;;;;;;23.17;5.40;;;;;;;;;;4846140;29;20081;-88
2021/01/18 05:23:47;;;;;;;15.90;5.60;;;;;;;;;;4829754;29;20058;-90
2021/01/18 05:26:21;;;;;;;10.07;4.30;;;3.80;99.90;;;;;;4849532;29;20055;-89
2021/01/18 05:28:51;;;;;;;19.00;6.65;;;4.00;99.90;;;;;;4833868;29;20065;-93
2021/01/18 05:31:34;;;;;;;12.57;5.22;;;3.90;99.90;;;;;;4815874;29;20065;-91
2021/01/18 05:34:14;;;;;;;21.52;4.63;;;4.00;99.90;;;;;;4828458;29;20057;-86
2021/01/18 05:36:55;;;;;;;20.50;5.50;;;3.90;99.90;;;;;;4833688;29;20073;-88
2021/01/18 05:39:34;;;;;;;19.25;4.72;;;4.00;99.90;;;;;;4842289;29;20057;-90
2021/01/18 05:42:03;;;;;;;18.90;4.97;;;;;;;;;;4821095;29;20427;-89
2021/01/18 05:44:35;;;;;;;15.50;5.43;;;4.00;99.90;;;;;;4831519;29;20061;-89
2021/01/18 05:47:10;;;;;;;12.63;5.13;;;4.00;99.90;;;;;;4834505;29;20066;-89
2021/01/18 05:49:41;;;;;;;13.98;3.45;;;3.90;99.90;;;;;;4818073;29;20057;-86
2021/01/18 05:52:31;;;;;;;13.40;3.53;;;4.00;99.90;;;;;;4845024;29;20053;-88
2021/01/18 05:55:26;;;;;;;16.02;4.55;;;3.90;99.90;;;;;;4849092;29;20058;-89
2021/01/18 05:58:02;;;;;;;11.32;3.92;;;4.00;99.90;;;;;;4833762;29;20376;-90
2021/01/18 06:00:41;;;;;;;24.83;4.72;;;4.00;99.90;;;;;;4819106;29;20053;-86
2021/01/18 06:03:11;;;;;;;17.70;4.80;;;;;;;;;;4832413;29;20050;-85
2021/01/18 06:05:40;;;;;;;14.75;3.72;;;3.40;99.90;;;;;;4831007;29;20541;-87
2021/01/18 06:08:08;;;;;;;23.77;6.90;;;;;;;;;;4814949;29;20060;-91
2021/01/18 06:10:36;;;;;;;22.88;6.70;;;;;;;;;;4846662;29;20052;-88
2021/01/18 06:13:32;;;;;;;17.70;4.33;;;3.90;99.90;;;;;;4831871;29;20269;-87
2021/01/18 06:16:11;;;;;;;27.02;4.72;;;4.10;99.90;;;;;;4831477;29;20297;-94
2021/01/18 06:18:42;;;;;;;21.00;5.68;;;4.10;99.90;;;;;;4830656;29;20100;-89
2021/01/18 06:21:12;;;;;;;14.45;3.28;;;4.00;99.90;;;;;;4814713;29;20054;-88
2021/01/18 06:23:42;;;;;;;13.48;4.18;;;4.00;99.90;;;;;;4827142;29;20054;-90
2021/01/18 06:26:10;;;;;;;12.48;3.85;;;;;;;;;;4831314;29;20054;-90
2021/01/18 06:28:41;;;;;;;13.68;4.97;;;4.10;99.90;;;;;;4829702;29;20053;-87
2021/01/18 06:31:11;;;;;;;22.60;6.30;;;4.00;99.90;;;;;;4814870;29;20050;-89
2021/01/18 06:33:44;;;;;;;15.30;3.90;;;4.10;99.90;;;;;;4837173;29;20666;-85
2021/01/18 06:36:26;;;;;;;22.70;5.40;;;4.10;99.90;;;;;;4819419;29;20054;-90
2021/01/18 06:39:00;;;;;;;16.05;3.95;;;;;;;;;;4780919;29;20066;-92
2021/01/18 06:41:34;;;;;;;18.67;3.75;;;4.00;99.90;;;;;;4814004;29;20073;-89
2021/01/18 06:44:09;;;;;;;15.73;4.38;;;;;;;;;;4812273;29;20051;-93
2021/01/18 06:46:38;;;;;;;15.50;4.28;;;;;;;;;;4816193;29;20077;-87
2021/01/18 06:49:07;;;;;;;11.55;3.80;;;;;;;;;;4810332;29;20073;-85
2021/01/18 06:51:45;;;;;;;15.48;4.13;;;3.90;99.90;;;;;;4820537;29;20046;-87
2021/01/18 06:54:20;;;;;;;17.65;4.40;;;4.00;99.90;;;;;;4828173;29;20073;-85
2021/01/18 06:56:50;;;;;;;25.98;4.85;;;4.00;99.90;;;;;;4819369;29;20054;-87
2021/01/18 06:59:44;;;;;;;18.87;6.47;;;4.10;99.90;;;;;;4819170;29;20062;-87
2021/01/18 07:02:21;;;;;;;8.75;3.75;;;;;;;;;;4834637;29;20083;-85
2021/01/18 07:04:50;;;;;;;10.13;3.65;;;;;;;;;;4835318;29;20063;-90
2021/01/18 07:07:30;;;;;;;12.18;3.53;;;4.10;99.90;;;;;;4832326;29;20065;-88
2021/01/18 07:09:59;;;;;;;8.15;3.72;;;4.10;99.90;;;;;;4820922;29;20062;-89
2021/01/18 07:12:28;;;;;;;4.60;2.90;;;3.90;99.90;;;;;;4836119;29;20062;-88
2021/01/18 07:14:58;;;;;;;19.02;4.63;;;4.20;99.90;;;;;;4828056;29;20073;-91
2021/01/18 07:17:42;;;;;;;11.48;4.20;;;4.10;99.90;;;;;;4814288;29;20058;-89
2021/01/18 07:20:22;;;;;;;10.80;5.22;;;4.10;99.90;;;;;;4834167;29;20062;-88
2021/01/18 07:23:07;;;;;;;17.95;4.10;;;4.10;99.90;;;;;;4810685;29;20054;-85
2021/01/18 07:25:37;;;;;;;24.03;3.70;;;3.90;99.90;;;;;;4831559;29;20064;-90
2021/01/18 07:28:08;;;;;;;13.65;3.72;;;;;;;;;;4820800;29;20406;-88
2021/01/18 07:30:38;;;;;;;15.23;4.45;;;4.00;99.90;;;;;;4838015;29;20076;-89
2021/01/18 07:33:07;;;;;;;16.35;4.18;;;;;;;;;;4837045;29;20058;-86
2021/01/18 07:35:36;;;;;;;10.60;4.20;;;3.80;99.90;;;;;;4833929;29;20384;-85
2021/01/18 07:38:10;;;;;;;11.73;4.20;;;;;;;;;;4848998;29;20511;-90
2021/01/18 07:40:38;;;;;;;7.05;3.90;;;;;;;;;;4848318;29;20414;-86
2021/01/18 07:43:07;;;;;;;12.65;3.63;;;;;;;;;;4845950;29;20062;-88
2021/01/18 07:45:35;;;;;;;18.45;4.65;;;;;;;;;;4854213;29;20062;-86
2021/01/18 07:48:04;;;;;;;13.38;3.65;;;;;;;;;;4845971;29;20069;-85
2021/01/18 07:50:33;;;;;;;12.85;3.47;;;4.20;99.90;;;;;;4833572;29;20061;-90
2021/01/18 07:53:10;;;;;;;12.18;4.43;;;4.20;99.90;;;;;;4852300;29;20061;-91
2021/01/18 07:55:39;;;;;;;6.65;3.05;;;;;;;;;;4833826;29;20074;-92
2021/01/18 07:58:20;;;;;;;5.75;3.05;;;4.20;99.90;;;;;;4862148;29;20064;-86
2021/01/18 08:00:50;;;;;;;10.73;3.75;;;4.30;99.90;;;;;;4830737;29;20054;-92
2021/01/18 08:03:21;;;;;;;10.38;3.35;;;;;;;;;;4843487;29;20066;-84
2021/01/18 08:06:03;;;;;;;14.60;2.95;;;4.30;99.90;;;;;;4849738;29;20066;-95
2021/01/18 08:08:38;;;;;;;11.25;3.55;;;;;;;;;;4819077;29;20050;-93
2021/01/18 08:11:22;;;;;;;3.88;2.70;;;4.40;99.90;;;;;;4851859;29;20060;-91
2021/01/18 08:13:59;;;;;;;12.30;4.50;;;4.40;99.90;;;;;;4841710;29;20062;-95
2021/01/18 08:16:40;;;;;;;5.90;3.47;;;4.30;99.90;;;;;;4853561;29;20084;-88
2021/01/18 08:19:22;;;;;;;7.68;3.47;;;;;;;;;;4827614;29;20046;-91
2021/01/18 08:22:05;;;;;;;14.23;4.78;;;4.50;99.90;;;;;;4832123;29;20061;-91
2021/01/18 08:24:36;;;;;;;19.20;6.10;;;;;;;;;;4836469;29;20076;-89
2021/01/18 08:27:13;;;;;;;7.03;2.85;;;4.50;99.90;;;;;;4839313;29;20040;-94
2021/01/18 08:29:50;;;;;;;12.35;3.78;;;4.70;99.90;;;;;;4832531;29;20054;-90
2021/01/18 08:34:54;;;;;;;8.98;3.05;;;;;;;;;;4837459;29;20062;-87
2021/01/18 08:37:22;;;;;;;13.43;3.75;;;;;;;;;;4830837;29;20058;-87
2021/01/18 08:40:13;;;;;;;17.33;3.80;;;4.90;99.90;;;;;;4830451;29;20053;-86
2021/01/18 08:42:54;;;;;;;10.85;4.97;;;;;;;;;;4842806;29;20052;-89
2021/01/18 08:45:51;;;;;;;11.95;3.63;;;5.10;99.90;;;;;;4823869;29;20050;-86
2021/01/18 08:48:32;;;;;;;8.65;3.33;;;5.10;99.90;;;;;;4835858;29;20062;-88
2021/01/18 08:51:44;;;;;;;11.25;5.40;;;5.10;99.90;;;;;;4835965;29;20034;-86
2021/01/18 08:54:38;;;;;;;8.05;3.03;;;5.10;99.90;;;;;;4828343;29;20050;-87
2021/01/18 08:57:38;;;;;;;12.63;3.55;;;5.20;99.90;;;;;;4827743;29;20084;-86
2021/01/18 09:00:13;;;;;;;5.10;3.25;;;;;;;;;;4848310;29;20064;-88
2021/01/18 09:02:48;;;;;;;5.68;2.80;;;5.20;99.90;;;;;;4837576;29;20046;-86
2021/01/18 09:05:22;;;;;;;7.15;2.35;;;5.30;99.90;;;;;;4844598;29;20054;-87
2021/01/18 09:07:52;;;;;;;7.15;2.70;;;;;;;;;;4846555;29;20058;-88
2021/01/18 09:10:26;;;;;;;8.18;3.78;;;;;;;;;;4832892;29;20046;-87
2021/01/18 09:13:01;;;;;;;12.68;4.25;;;;;;;;;;4824834;29;20046;-88
2021/01/18 09:16:01;;;;;;;12.68;3.25;;;;;;;;;;4815454;29;20066;-92
2021/01/18 09:18:37;;;;;;;5.88;2.38;;;;;;;;;;4836098;29;20045;-93
2021/01/18 09:21:18;;;;;;;23.05;4.85;;;5.50;99.90;;;;;;4838646;29;20061;-89
2021/01/18 09:23:55;;;;;;;9.70;4.90;;;;;;;;;;4855629;29;20050;-88
2021/01/18 09:26:27;;;;;;;10.35;2.90;;;;;;;;;;4819764;29;20052;-90
2021/01/18 09:29:00;;;;;;;6.82;3.13;;;;;;;;;;4832195;29;20065;-88
2021/01/18 09:31:29;;;;;;;8.13;3.10;;;;;;;;;;4818598;29;20054;-89
2021/01/18 09:34:13;;;;;;;14.20;3.65;;;5.70;99.90;;;;;;4813083;29;20058;-87
2021/01/18 09:36:44;;;;;;;10.50;2.05;;;;;;;;;;4834777;29;20050;-87
2021/01/18 09:39:31;;;;;;;11.23;2.40;;;;;;;;;;4820198;29;20061;-88
2021/01/18 09:42:21;;;;;;;7.15;2.95;;;;;;;;;;4817958;29;20045;-88
2021/01/18 09:44:54;;;;;;;6.43;1.80;;;;;;;;;;4818975;29;20061;-88
2021/01/18 09:47:25;;;;;;;7.45;2.55;;;;;;;;;;4833796;29;20149;-88
2021/01/18 09:49:53;;;;;;;7.47;2.85;;;;;;;;;;4834304;29;20066;-86
2021/01/18 09:52:26;;;;;;;13.95;3.42;;;;;;;;;;4817903;29;20054;-86
2021/01/18 09:55:00;;;;;;;8.63;3.45;;;;;;;;;;4816375;29;20050;-90
2021/01/18 09:57:29;;;;;;;6.45;3.13;;;6.20;99.90;;;;;;4803689;29;20050;-89
2021/01/18 10:00:01;;;;;;;5.63;2.55;;;;;;;;;;4835827;29;20464;-88
2021/01/18 10:02:44;;;;;;;4.38;2.28;;;;;;;;;;4828822;29;20063;-86
2021/01/18 10:05:43;;;;;;;10.57;2.45;;;6.40;99.90;;;;;;4820635;29;20050;-87
2021/01/18 10:08:25;;;;;;;11.02;2.10;;;6.30;99.90;;;;;;4826467;29;20063;-87
2021/01/18 10:10:55;;;;;;;12.13;3.00;;;;;;;;;;4814572;29;20055;-87
2021/01/18 10:13:32;;;;;;;7.38;2.45;;;;;;;;;;4786744;29;20050;-85
2021/01/18 10:16:12;;;;;;;13.95;2.08;;;6.40;99.90;;;;;;4813828;29;20042;-90
2021/01/18 10:19:10;;;;;;;;;;;6.50;99.90;;;;;;4835125;29;20066;-91
2021/01/18 10:22:35;;;;;;;7.32;2.38;;;6.70;99.90;;;;;;4837675;29;20487;-89
2021/01/18 10:25:10;;;;;;;3.78;2.45;;;6.60;99.90;;;;;;4830311;29;20470;-87
2021/01/18 10:27:48;;;;;;;12.30;2.42;;;;;;;;;;4819086;29;20151;-87
2021/01/18 10:30:20;;;;;;;6.93;2.50;;;6.60;99.90;;;;;;4849931;29;20065;-88
2021/01/18 10:32:49;;;;;;;;;;;6.90;99.90;;;;;;4850659;29;20062;-93
2021/01/18 10:35:30;;;;;;;7.68;3.17;;;6.70;99.90;;;;;;4822697;29;20420;-88
2021/01/18 10:38:19;;;;;;;8.00;2.63;;;6.70;99.90;;;;;;4850854;29;20079;-87
2021/01/18 10:41:06;;;;;;;6.45;2.42;;;6.80;99.90;;;;;;4854501;24;20062;-86
2021/01/18 10:43:55;;;;;;;4.93;2.88;;;;;;;;;;4813144;29;20054;-84
2021/01/18 10:46:27;;;;;;;17.08;4.88;;;;;;;;;;4807646;29;20059;-86
2021/01/18 10:49:12;;;;;;;5.75;2.30;;;;;;;;;;4834696;29;20063;-88
2021/01/18 10:51:59;;;;;;;7.50;3.03;;;;;;;;;;4816210;29;20054;-89
2021/01/18 10:54:41;;;;;;;5.30;2.20;;;7.10;99.90;;;;;;4816368;29;20058;-88
2021/01/18 10:57:19;;;;;;;3.22;1.77;;;7.20;99.90;;;;;;4817220;29;20051;-87
2021/01/18 11:00:18;;;;;;;6.93;1.90;;;;;;;;;;4826547;24;20058;-87
2021/01/18 11:03:01;;;;;;;7.32;2.30;;;7.10;99.90;;;;;;4840342;29;20060;-87
2021/01/18 11:05:34;;;;;;;6.43;1.70;;;;;;;;;;4827513;29;20062;-89
2021/01/18 11:08:05;;;;;;;5.45;1.85;;;;;;;;;;4844069;29;20061;-89
2021/01/18 11:10:42;;;;;;;9.80;4.05;;;7.10;99.90;;;;;;4837388;29;20058;-85
2021/01/18 11:13:26;;;;;;;6.05;2.50;;;;;;;;;;4825260;29;20057;-86
2021/01/18 11:16:13;;;;;;;12.15;4.38;;;7.30;99.90;;;;;;4833854;29;20070;-91
2021/01/18 11:18:46;;;;;;;5.53;2.47;;;;;;;;;;4837568;29;20570;-87
2021/01/18 11:21:32;;;;;;;7.25;3.33;;;7.30;99.90;;;;;;4847609;29;20077;-87
2021/01/18 11:24:01;;;;;;;8.55;2.90;;;;;;;;;;4836298;29;20058;-89
2021/01/18 11:26:34;;;;;;;7.60;2.38;;;;;;;;;;4841041;29;20046;-89
2021/01/18 11:29:04;;;;;;;7.30;2.08;;;7.40;99.90;;;;;;4835230;29;20038;-88
2021/01/18 11:32:22;;;;;;;3.25;1.88;;;7.60;99.90;;;;;;4840337;29;20068;-88
2021/01/18 11:34:56;;;;;;;2.17;1.42;;;;;;;;;;4836017;29;20059;-89
2021/01/18 11:37:35;;;;;;;6.68;1.48;;;7.80;99.90;;;;;;4835806;29;20050;-89
2021/01/18 11:40:11;;;;;;;7.10;2.25;;;;;;;;;;4832047;29;20058;-84
2021/01/18 11:42:43;;;;;;;1.92;1.55;;;;;;;;;;4842791;29;20042;-93
2021/01/18 11:45:15;;;;;;;6.63;1.98;;;;;;;;;;4822573;29;20045;-95
2021/01/18 11:48:12;;;;;;;15.80;1.55;;;7.70;99.90;;;;;;4821966;29;20046;-93
2021/01/18 11:50:47;;;;;;;6.95;1.60;;;;;;;;;;4845880;29;20056;-92
2021/01/18 11:53:21;;;;;;;8.70;3.20;;;;;;;;;;4841435;29;20056;-92
2021/01/18 11:55:53;;;;;;;4.68;1.90;;;7.80;99.90;;;;;;4825707;29;20037;-91
2021/01/18 11:58:24;;;;;;;3.47;2.28;;;;;;;;;;4832076;29;20060;-93
2021/01/18 12:00:54;;;;;;;3.28;2.22;;;;;;;;;;4833083;29;20077;-91
2021/01/18 12:03:26;;;;;;;8.55;1.98;;;;;;;;;;4834632;29;20439;-92
2021/01/18 12:05:59;;;;;;;4.60;2.92;;;;;;;;;;4808368;29;20058;-92
2021/01/18 12:08:28;;;;;;;5.00;3.23;;;;;;;;;;4824086;29;20054;-90
2021/01/18 12:11:21;;;;;;;6.10;1.90;;;;;;;;;;4812596;29;20041;-92
2021/01/18 12:13:52;;;;;;;7.55;1.35;;;;;;;;;;4813953;29;20046;-93
2021/01/18 12:16:26;;;;;;;2.70;1.25;;;;;;;;;;4820944;29;20073;-90
2021/01/18 12:18:56;;;;;;;3.85;1.60;;;;;;;;;;4820427;29;20045;-92
2021/01/18 12:21:24;;;;;;;1.55;1.40;;;;;;;;;;4835525;29;20052;-92
2021/01/18 12:23:53;;;;;;;5.45;2.10;;;;;;;;;;4818468;29;20054;-92
2021/01/18 12:26:23;;;;;;;2.40;2.03;;;;;;;;;;4837193;29;20056;-92
2021/01/18 12:28:53;;;;;;;2.30;1.60;;;;;;;;;;4837692;29;20601;-91
2021/01/18 12:31:24;;;;;;;2.45;1.65;;;;;;;;;;4839965;29;20057;-91
2021/01/18 12:34:03;;;;;;;1.60;1.50;;;;;;;;;;4811427;29;20054;-93
2021/01/18 12:36:33;;;;;;;8.65;2.15;;;;;;;;;;4840032;29;20051;-89
2021/01/18 12:39:03;;;;;;;10.27;3.80;;;;;;;;;;4801569;29;20050;-89
2021/01/18 12:41:32;;;;;;;6.13;2.08;;;;;;;;;;4814701;29;20064;-91
2021/01/18 12:44:09;;;;;;;5.05;1.90;;;;;;;;;;4836015;29;20400;-91
2021/01/18 12:46:58;;;;;;;7.57;2.92;;;;;;;;;;4811831;29;20058;-91
2021/01/18 12:49:39;;;;;;;6.88;1.95;;;;;;;;;;4822941;29;20041;-91
2021/01/18 12:52:14;;;;;;;6.25;1.77;;;;;;;;;;4809644;29;20054;-90
2021/01/18 12:54:51;;;;;;;3.10;2.28;;;;;;;;;;4791756;29;20054;-91
2021/01/18 12:57:21;;;;;;;5.65;2.42;;;;;;;;;;4819312;29;20042;-91
2021/01/18 12:59:55;;;;;;;5.90;1.75;;;;;;;;;;4784983;29;20226;-92
2021/01/18 13:02:45;;;;;;;7.57;3.50;;;;;;;;;;4820374;29;20059;-90
2021/01/18 13:05:32;;;;;;;6.65;1.60;;;;;;;;;;4788141;29;20081;-91
2021/01/18 13:08:14;;;;;;;2.65;1.52;;;;;;;;;;4801479;29;20050;-92
2021/01/18 13:11:05;;;;;;;6.72;3.50;;;7.90;99.90;;;;;;4821493;29;20050;-91
2021/01/18 13:14:03;;;;;;;8.30;3.83;;;;;;;;;;4804277;29;20061;-90
2021/01/18 13:16:33;;;;;;;5.13;2.15;;;;;;;;;;4794421;29;20066;-92
2021/01/18 13:19:03;;;;;;;6.80;2.63;;;;;;;;;;4799478;29;20065;-91
2021/01/18 13:21:31;;;;;;;4.53;2.33;;;;;;;;;;4793236;29;20571;-92
2021/01/18 13:24:00;;;;;;;5.93;2.42;;;;;;;;;;4763109;29;20529;-91
2021/01/18 13:26:29;;;;;;;9.30;3.22;;;;;;;;;;4795801;29;20063;-90
2021/01/18 13:28:59;;;;;;;7.13;2.58;;;;;;;;;;4791511;29;20076;-90
2021/01/18 13:31:38;;;;;;;5.25;2.60;;;7.90;99.90;;;;;;4794560;29;20066;-91
2021/01/18 13:34:20;;;;;;;5.93;2.80;;;;;;;;;;4773250;29;20145;-90
2021/01/18 13:36:56;;;;;;;3.63;2.35;;;;;;;;;;4782514;29;20514;-91
2021/01/18 13:39:29;;;;;;;9.65;3.78;;;;;;;;;;4812664;29;20062;-91
2021/01/18 13:41:58;;;;;;;5.43;2.70;;;;;;;;;;4796611;29;20054;-90
2021/01/18 13:44:31;;;;;;;4.60;3.20;;;;;;;;;;4794527;29;20067;-92
2021/01/18 13:47:19;;;;;;;4.90;1.58;;;;;;;;;;4801758;29;20073;-92
2021/01/18 13:50:02;;;;;;;8.25;2.22;;;;;;;;;;4813212;29;20054;-92
2021/01/18 13:52:33;;;;;;;6.90;3.03;;;;;;;;;;4797482;29;20062;-92
2021/01/18 13:55:03;;;;;;;1.88;1.45;;;;;;;;;;4808756;29;20058;-92
2021/01/18 13:57:33;;;;;;;8.50;3.30;;;;;;;;;;4762285;29;20062;-94
2021/01/18 14:00:10;;;;;;;5.43;2.10;;;;;;;;;;4771692;29;20063;-93
2021/01/18 14:02:42;;;;;;;3.58;2.35;;;;;;;;;;4785094;29;20058;-91
2021/01/18 14:05:22;;;;;;;6.13;3.80;;;;;;;;;;4793497;29;20062;-92
2021/01/18 14:08:04;;;;;;;11.90;3.10;;;;;;;;;;4801837;29;20059;-91
2021/01/18 14:11:13;;;;;;;10.77;3.75;;;;;;;;;;4809495;29;20039;-92
2021/01/18 14:13:47;;;;;;;6.43;3.30;;;;;;;;;;4791132;29;20487;-91
2021/01/18 14:16:19;;;;;;;9.05;3.72;;;;;;;;;;4811510;29;20059;-92
2021/01/18 14:18:55;;;;;;;8.35;2.78;;;7.70;99.90;;;;;;4782410;29;20058;-91
2021/01/18 14:21:27;;;;;;;12.90;2.80;;;;;;;;;;4771147;29;20070;-91
2021/01/18 14:24:03;;;;;;;10.55;3.00;;;;;;;;;;4782875;29;20050;-90
2021/01/18 14:26:40;;;;;;;7.13;2.65;;;;;;;;;;4807961;29;20055;-92
2021/01/18 14:29:11;;;;;;;;;;;;;;;;;;4786141;29;20058;-89
2021/01/18 14:31:41;;;;;;;16.63;3.78;;;;;;;;;;4793937;29;19940;-90
2021/01/18 14:34:16;;;;;;;8.20;3.92;;;;;;;;;;4791930;29;20066;-91
2021/01/18 14:36:47;;;;;;;9.82;3.95;;;;;;;;;;4774443;29;20073;-89
2021/01/18 14:39:18;;;;;;;7.78;2.70;;;;;;;;;;4803445;29;20050;-91